Hovedside
METAR-TAF:

METAR-TAF

Lufthavner :

Cape Town internasjonale lufthavn

Cape Town, Sør-Afrika

breddegrad: 33-59S, lengdegrad: 018-36E, høyde over havet: 42 m

Gjeldene værobservasjon

Denne rapporten ble laget for 49 minutter siden, klokken 15:00 UTC
Vind 29 kt fra Sør
Temperatur 19°C
Luftfuktighet 56%
Trykk 1012 hPa
Sikt 10 km eller mer
ingen skyer under 1500 m og ingen bygeskyer

METAR: FACT 201500Z 19029KT CAVOK 19/10 Q1012 NOSIG

Tid: 17:49 (15:49 UTC)

Varsel

Denne rapporten ble laget for 5 timer og 49 minutter siden, klokken 10:00 UTC
Varsel gyldig fra 20. klokken 12 UTC til 21. klokken 18 UTC
Vind 18 kt fra Sør
Sikt 10 km eller mer
ingen skyer under 1500 m og ingen bygeskyer
Fra 21. klokken 0300 UTC
Vind 12 kt fra Sør
Sikt 10 km eller mer
Få skyer i en høyde av 3500 ft

TAF: FACT 201000Z 2012/2118 17018KT CAVOK TX24/2012Z TN14/2104Z FM210300 18012KT 9999 FEW035

Værobservasjoner og værvarsel for over 4000 flyplasser (METAR- og TAF-rapporter).

Tilgjengelige stasjoner er representert av de røde og gule prikkene på kartet.

Hold musepekeren over prikken for å se navnet på stasjonen.

Klikk så for å se værobservasjoner og -varsler.

For å forandre kartet kan du klikke på den grønne knappen med svart kryss for å zoome inn, på den grønne knappen med strek for å zoome ut, eller på de grønne pilene for å se tilstøtende kart.


METAR-TAF: